sensor_id;sensor_type;location;lat;lon;timestamp;pressure;altitude;pressure_sealevel;temperature;humidity
9277;BME280;4676;42.678;23.244;2023-05-07T00:00:20;94326.06;;;10.34;100.00
9277;BME280;4676;42.678;23.244;2023-05-07T00:02:48;94315.38;;;10.49;100.00
9277;BME280;4676;42.678;23.244;2023-05-07T00:05:14;94322.72;;;10.33;100.00
9277;BME280;4676;42.678;23.244;2023-05-07T00:07:41;94318.16;;;10.18;100.00
9277;BME280;4676;42.678;23.244;2023-05-07T00:10:10;94319.88;;;10.18;100.00
9277;BME280;4676;42.678;23.244;2023-05-07T00:12:37;94321.09;;;10.06;100.00
9277;BME280;4676;42.678;23.244;2023-05-07T00:15:05;94317.19;;;9.97;100.00
9277;BME280;4676;42.678;23.244;2023-05-07T00:17:33;94313.09;;;9.93;100.00
9277;BME280;4676;42.678;23.244;2023-05-07T00:20:00;94316.50;;;9.92;100.00
9277;BME280;4676;42.678;23.244;2023-05-07T00:22:26;94309.91;;;9.88;100.00
9277;BME280;4676;42.678;23.244;2023-05-07T00:24:55;94315.13;;;9.84;100.00
9277;BME280;4676;42.678;23.244;2023-05-07T00:27:24;94313.66;;;9.77;100.00
9277;BME280;4676;42.678;23.244;2023-05-07T00:29:51;94308.50;;;9.80;100.00
9277;BME280;4676;42.678;23.244;2023-05-07T00:32:17;94318.75;;;9.75;100.00
9277;BME280;4676;42.678;23.244;2023-05-07T00:34:44;94279.88;;;9.53;100.00
9277;BME280;4676;42.678;23.244;2023-05-07T00:37:11;94313.78;;;9.74;100.00
9277;BME280;4676;42.678;23.244;2023-05-07T00:39:38;94308.72;;;9.74;100.00
9277;BME280;4676;42.678;23.244;2023-05-07T00:42:04;94305.63;;;9.64;100.00
9277;BME280;4676;42.678;23.244;2023-05-07T00:44:33;94313.16;;;9.67;100.00
9277;BME280;4676;42.678;23.244;2023-05-07T00:47:01;94326.72;;;9.65;100.00
9277;BME280;4676;42.678;23.244;2023-05-07T00:49:35;94320.91;;;9.61;100.00
9277;BME280;4676;42.678;23.244;2023-05-07T00:52:04;94323.88;;;9.49;100.00
9277;BME280;4676;42.678;23.244;2023-05-07T00:54:32;94321.44;;;9.46;100.00
9277;BME280;4676;42.678;23.244;2023-05-07T00:56:59;94320.72;;;9.42;100.00
9277;BME280;4676;42.678;23.244;2023-05-07T00:59:27;94319.03;;;9.41;100.00
9277;BME280;4676;42.678;23.244;2023-05-07T01:01:55;94323.28;;;9.41;100.00
9277;BME280;4676;42.678;23.244;2023-05-07T01:04:22;94315.00;;;9.36;100.00
9277;BME280;4676;42.678;23.244;2023-05-07T01:06:49;94318.53;;;9.32;100.00
9277;BME280;4676;42.678;23.244;2023-05-07T01:09:16;94321.16;;;9.29;100.00
9277;BME280;4676;42.678;23.244;2023-05-07T01:11:43;94319.69;;;9.22;100.00
9277;BME280;4676;42.678;23.244;2023-05-07T01:14:10;94321.22;;;9.26;100.00
9277;BME280;4676;42.678;23.244;2023-05-07T01:16:37;94323.09;;;9.21;100.00
9277;BME280;4676;42.678;23.244;2023-05-07T01:19:08;94329.59;;;9.28;100.00
9277;BME280;4676;42.678;23.244;2023-05-07T01:21:37;94322.25;;;9.20;100.00
9277;BME280;4676;42.678;23.244;2023-05-07T01:24:06;94324.03;;;9.17;100.00
9277;BME280;4676;42.678;23.244;2023-05-07T01:26:33;94324.91;;;9.16;100.00
9277;BME280;4676;42.678;23.244;2023-05-07T01:29:00;94325.81;;;9.15;100.00
9277;BME280;4676;42.678;23.244;2023-05-07T01:31:27;94325.22;;;9.07;100.00
9277;BME280;4676;42.678;23.244;2023-05-07T01:33:53;94301.44;;;8.84;100.00
9277;BME280;4676;42.678;23.244;2023-05-07T01:36:22;94266.69;;;8.65;100.00
9277;BME280;4676;42.678;23.244;2023-05-07T01:38:52;94320.50;;;8.94;100.00
9277;BME280;4676;42.678;23.244;2023-05-07T01:41:20;94323.97;;;8.92;100.00
9277;BME280;4676;42.678;23.244;2023-05-07T01:43:49;94316.56;;;8.86;100.00
9277;BME280;4676;42.678;23.244;2023-05-07T01:46:17;94308.94;;;8.87;100.00
9277;BME280;4676;42.678;23.244;2023-05-07T01:48:44;94309.84;;;8.85;100.00
9277;BME280;4676;42.678;23.244;2023-05-07T01:51:11;94309.09;;;8.83;100.00
9277;BME280;4676;42.678;23.244;2023-05-07T01:53:39;94302.47;;;8.79;100.00
9277;BME280;4676;42.678;23.244;2023-05-07T01:56:06;94303.75;;;8.92;100.00
9277;BME280;4676;42.678;23.244;2023-05-07T01:58:34;94298.78;;;8.89;100.00
9277;BME280;4676;42.678;23.244;2023-05-07T02:01:01;94295.50;;;9.13;100.00
9277;BME280;4676;42.678;23.244;2023-05-07T02:03:28;94295.53;;;9.12;100.00
9277;BME280;4676;42.678;23.244;2023-05-07T02:05:55;94294.00;;;9.08;100.00
9277;BME280;4676;42.678;23.244;2023-05-07T02:08:21;94296.88;;;8.97;100.00
9277;BME280;4676;42.678;23.244;2023-05-07T02:10:48;94289.50;;;8.89;100.00
9277;BME280;4676;42.678;23.244;2023-05-07T02:13:15;94282.75;;;8.90;100.00
9277;BME280;4676;42.678;23.244;2023-05-07T02:15:43;94286.25;;;8.86;100.00
9277;BME280;4676;42.678;23.244;2023-05-07T02:18:12;94276.41;;;8.77;100.00
9277;BME280;4676;42.678;23.244;2023-05-07T02:20:39;94274.78;;;8.76;100.00
9277;BME280;4676;42.678;23.244;2023-05-07T02:23:05;94281.66;;;8.71;100.00
9277;BME280;4676;42.678;23.244;2023-05-07T02:25:32;94286.88;;;8.65;100.00
9277;BME280;4676;42.678;23.244;2023-05-07T02:27:59;94288.19;;;8.76;100.00
9277;BME280;4676;42.678;23.244;2023-05-07T02:30:25;94288.72;;;8.87;100.00
9277;BME280;4676;42.678;23.244;2023-05-07T02:32:54;94287.00;;;8.88;100.00
9277;BME280;4676;42.678;23.244;2023-05-07T02:35:20;94289.00;;;8.78;100.00
9277;BME280;4676;42.678;23.244;2023-05-07T02:37:47;94291.56;;;8.77;100.00
9277;BME280;4676;42.678;23.244;2023-05-07T02:40:14;94287.25;;;8.80;100.00
9277;BME280;4676;42.678;23.244;2023-05-07T02:42:40;94287.25;;;8.80;100.00
9277;BME280;4676;42.678;23.244;2023-05-07T02:45:08;94286.56;;;8.75;100.00
9277;BME280;4676;42.678;23.244;2023-05-07T02:47:35;94276.59;;;8.71;100.00
9277;BME280;4676;42.678;23.244;2023-05-07T02:50:04;94287.63;;;8.68;100.00
9277;BME280;4676;42.678;23.244;2023-05-07T02:52:31;94285.63;;;8.78;100.00
9277;BME280;4676;42.678;23.244;2023-05-07T02:54:57;94285.19;;;8.65;100.00
9277;BME280;4676;42.678;23.244;2023-05-07T02:57:24;94290.47;;;8.58;100.00
9277;BME280;4676;42.678;23.244;2023-05-07T02:59:51;94293.44;;;8.70;100.00
9277;BME280;4676;42.678;23.244;2023-05-07T03:02:18;94286.31;;;8.55;100.00
9277;BME280;4676;42.678;23.244;2023-05-07T03:04:45;94303.00;;;8.61;100.00
9277;BME280;4676;42.678;23.244;2023-05-07T03:07:13;94306.19;;;8.67;100.00
9277;BME280;4676;42.678;23.244;2023-05-07T03:09:40;94300.06;;;8.74;100.00
9277;BME280;4676;42.678;23.244;2023-05-07T03:12:07;94299.38;;;8.69;100.00
9277;BME280;4676;42.678;23.244;2023-05-07T03:14:33;94302.91;;;8.64;100.00
9277;BME280;4676;42.678;23.244;2023-05-07T03:17:00;94303.97;;;8.57;100.00
9277;BME280;4676;42.678;23.244;2023-05-07T03:19:27;94309.03;;;8.55;100.00
9277;BME280;4676;42.678;23.244;2023-05-07T03:21:55;94302.50;;;8.48;100.00
9277;BME280;4676;42.678;23.244;2023-05-07T03:24:24;94313.44;;;8.48;100.00
9277;BME280;4676;42.678;23.244;2023-05-07T03:26:50;94316.03;;;8.47;100.00
9277;BME280;4676;42.678;23.244;2023-05-07T03:29:17;94310.03;;;8.51;100.00
9277;BME280;4676;42.678;23.244;2023-05-07T03:31:44;94316.78;;;8.50;100.00
9277;BME280;4676;42.678;23.244;2023-05-07T03:34:10;94320.16;;;8.49;100.00
9277;BME280;4676;42.678;23.244;2023-05-07T03:36:37;94317.59;;;8.51;100.00
9277;BME280;4676;42.678;23.244;2023-05-07T03:39:04;94317.44;;;8.56;100.00
9277;BME280;4676;42.678;23.244;2023-05-07T03:44:08;94323.34;;;8.56;100.00
9277;BME280;4676;42.678;23.244;2023-05-07T03:46:34;94325.75;;;8.61;100.00
9277;BME280;4676;42.678;23.244;2023-05-07T03:49:01;94328.94;;;8.66;100.00
9277;BME280;4676;42.678;23.244;2023-05-07T03:51:28;94334.06;;;8.64;100.00
9277;BME280;4676;42.678;23.244;2023-05-07T03:53:54;94330.66;;;8.65;100.00
9277;BME280;4676;42.678;23.244;2023-05-07T03:56:22;94330.66;;;8.65;100.00
9277;BME280;4676;42.678;23.244;2023-05-07T03:58:51;94334.69;;;8.71;100.00
9277;BME280;4676;42.678;23.244;2023-05-07T04:01:19;94332.00;;;8.77;100.00
9277;BME280;4676;42.678;23.244;2023-05-07T04:03:46;94343.53;;;8.85;100.00
9277;BME280;4676;42.678;23.244;2023-05-07T04:06:13;94336.50;;;8.95;100.00
9277;BME280;4676;42.678;23.244;2023-05-07T04:08:40;94336.16;;;9.07;100.00
9277;BME280;4676;42.678;23.244;2023-05-07T04:11:06;94346.50;;;9.26;100.00
9277;BME280;4676;42.678;23.244;2023-05-07T04:13:33;94354.03;;;9.55;100.00
9277;BME280;4676;42.678;23.244;2023-05-07T04:16:01;94362.03;;;9.68;100.00
9277;BME280;4676;42.678;23.244;2023-05-07T04:18:29;94364.63;;;9.66;100.00
9277;BME280;4676;42.678;23.244;2023-05-07T04:20:56;94367.69;;;9.76;100.00
9277;BME280;4676;42.678;23.244;2023-05-07T04:23:23;94365.22;;;9.74;100.00
9277;BME280;4676;42.678;23.244;2023-05-07T04:25:50;94371.78;;;9.80;100.00
9277;BME280;4676;42.678;23.244;2023-05-07T04:28:17;94370.84;;;9.82;100.00
9277;BME280;4676;42.678;23.244;2023-05-07T04:30:43;94377.25;;;9.92;100.00
9277;BME280;4676;42.678;23.244;2023-05-07T04:33:10;94380.09;;;10.08;100.00
9277;BME280;4676;42.678;23.244;2023-05-07T04:35:38;94385.56;;;10.22;100.00
9277;BME280;4676;42.678;23.244;2023-05-07T04:38:05;94383.63;;;10.30;100.00
9277;BME280;4676;42.678;23.244;2023-05-07T04:40:31;94382.72;;;10.31;100.00
9277;BME280;4676;42.678;23.244;2023-05-07T04:42:58;94382.56;;;10.36;100.00
9277;BME280;4676;42.678;23.244;2023-05-07T04:45:25;94387.59;;;10.37;100.00
9277;BME280;4676;42.678;23.244;2023-05-07T04:47:51;94390.84;;;10.41;100.00
9277;BME280;4676;42.678;23.244;2023-05-07T04:50:18;94390.63;;;10.47;100.00
9277;BME280;4676;42.678;23.244;2023-05-07T04:52:46;94381.13;;;10.52;100.00
9277;BME280;4676;42.678;23.244;2023-05-07T04:55:13;94382.31;;;10.67;100.00
9277;BME280;4676;42.678;23.244;2023-05-07T04:57:40;94382.81;;;10.76;100.00
9277;BME280;4676;42.678;23.244;2023-05-07T05:00:07;94378.28;;;10.84;100.00
9277;BME280;4676;42.678;23.244;2023-05-07T05:02:35;94377.06;;;10.94;100.00
9277;BME280;4676;42.678;23.244;2023-05-07T05:05:02;94372.00;;;11.16;100.00
9277;BME280;4676;42.678;23.244;2023-05-07T05:07:29;94374.03;;;11.30;100.00
9277;BME280;4676;42.678;23.244;2023-05-07T05:09:57;94384.00;;;11.34;100.00
9277;BME280;4676;42.678;23.244;2023-05-07T05:12:24;94384.25;;;11.50;100.00
9277;BME280;4676;42.678;23.244;2023-05-07T05:14:51;94383.72;;;11.64;100.00
9277;BME280;4676;42.678;23.244;2023-05-07T05:17:17;94379.88;;;11.75;100.00
9277;BME280;4676;42.678;23.244;2023-05-07T05:19:44;94377.94;;;11.82;100.00
9277;BME280;4676;42.678;23.244;2023-05-07T05:22:10;94374.56;;;11.81;100.00
9277;BME280;4676;42.678;23.244;2023-05-07T05:24:37;94379.66;;;12.01;100.00
9277;BME280;4676;42.678;23.244;2023-05-07T05:27:05;94378.13;;;12.18;100.00
9277;BME280;4676;42.678;23.244;2023-05-07T05:29:32;94380.41;;;12.03;100.00
9277;BME280;4676;42.678;23.244;2023-05-07T05:31:59;94383.88;;;12.02;100.00
9277;BME280;4676;42.678;23.244;2023-05-07T05:34:25;94382.31;;;12.19;100.00
9277;BME280;4676;42.678;23.244;2023-05-07T05:36:52;94382.94;;;12.44;100.00
9277;BME280;4676;42.678;23.244;2023-05-07T05:39:19;94382.88;;;12.45;100.00
9277;BME280;4676;42.678;23.244;2023-05-07T05:41:46;94379.88;;;12.56;100.00
9277;BME280;4676;42.678;23.244;2023-05-07T05:44:14;94384.81;;;12.79;100.00
9277;BME280;4676;42.678;23.244;2023-05-07T05:46:41;94385.31;;;12.87;100.00
9277;BME280;4676;42.678;23.244;2023-05-07T05:49:08;94380.75;;;12.94;100.00
9277;BME280;4676;42.678;23.244;2023-05-07T05:51:35;94380.22;;;12.87;100.00
9277;BME280;4676;42.678;23.244;2023-05-07T05:54:02;94375.72;;;12.92;100.00
9277;BME280;4676;42.678;23.244;2023-05-07T05:56:28;94381.34;;;13.19;100.00
9277;BME280;4676;42.678;23.244;2023-05-07T05:58:55;94380.78;;;13.31;100.00
9277;BME280;4676;42.678;23.244;2023-05-07T06:01:23;94373.41;;;13.44;100.00
9277;BME280;4676;42.678;23.244;2023-05-07T06:03:50;94378.16;;;13.69;100.00
9277;BME280;4676;42.678;23.244;2023-05-07T06:06:16;94384.53;;;13.77;100.00
9277;BME280;4676;42.678;23.244;2023-05-07T06:08:43;94385.28;;;13.79;100.00
9277;BME280;4676;42.678;23.244;2023-05-07T06:11:10;94383.81;;;13.92;100.00
9277;BME280;4676;42.678;23.244;2023-05-07T06:13:37;94380.59;;;14.06;100.00
9277;BME280;4676;42.678;23.244;2023-05-07T06:16:04;94382.00;;;14.12;100.00
9277;BME280;4676;42.678;23.244;2023-05-07T06:18:32;94377.06;;;14.43;100.00
9277;BME280;4676;42.678;23.244;2023-05-07T06:21:01;94383.38;;;14.36;100.00
9277;BME280;4676;42.678;23.244;2023-05-07T06:23:28;94382.78;;;14.48;100.00
9277;BME280;4676;42.678;23.244;2023-05-07T06:25:54;94378.84;;;14.58;100.00
9277;BME280;4676;42.678;23.244;2023-05-07T06:28:21;94374.97;;;14.84;100.00
9277;BME280;4676;42.678;23.244;2023-05-07T06:30:48;94369.66;;;15.04;100.00
9277;BME280;4676;42.678;23.244;2023-05-07T06:33:15;94364.22;;;15.10;100.00
9277;BME280;4676;42.678;23.244;2023-05-07T06:35:43;94371.13;;;15.24;100.00
9277;BME280;4676;42.678;23.244;2023-05-07T06:38:10;94369.22;;;15.27;100.00
9277;BME280;4676;42.678;23.244;2023-05-07T06:40:37;94364.13;;;15.12;100.00
9277;BME280;4676;42.678;23.244;2023-05-07T06:43:04;94361.84;;;15.23;100.00
9277;BME280;4676;42.678;23.244;2023-05-07T06:45:31;94353.41;;;14.89;100.00
9277;BME280;4676;42.678;23.244;2023-05-07T06:47:57;94354.84;;;15.26;100.00
9277;BME280;4676;42.678;23.244;2023-05-07T06:50:24;94353.00;;;15.75;100.00
9277;BME280;4676;42.678;23.244;2023-05-07T06:52:52;94353.81;;;16.06;100.00
9277;BME280;4676;42.678;23.244;2023-05-07T06:55:19;94351.50;;;16.31;98.51
9277;BME280;4676;42.678;23.244;2023-05-07T06:57:46;94351.59;;;16.29;97.71
9277;BME280;4676;42.678;23.244;2023-05-07T07:00:13;94354.97;;;16.30;95.73
9277;BME280;4676;42.678;23.244;2023-05-07T07:02:40;94358.94;;;16.06;94.90
9277;BME280;4676;42.678;23.244;2023-05-07T07:05:07;94343.84;;;16.31;94.23
9277;BME280;4676;42.678;23.244;2023-05-07T07:07:34;94352.66;;;16.69;90.84
9277;BME280;4676;42.678;23.244;2023-05-07T07:10:02;94356.06;;;16.40;90.21
9277;BME280;4676;42.678;23.244;2023-05-07T07:12:30;94354.78;;;16.63;88.39
9277;BME280;4676;42.678;23.244;2023-05-07T07:14:56;94342.72;;;16.21;88.96
9277;BME280;4676;42.678;23.244;2023-05-07T07:17:23;94355.63;;;16.47;87.42
9277;BME280;4676;42.678;23.244;2023-05-07T07:19:50;94355.00;;;16.44;86.32
9277;BME280;4676;42.678;23.244;2023-05-07T07:22:16;94353.19;;;16.46;83.92
9277;BME280;4676;42.678;23.244;2023-05-07T07:24:43;94334.50;;;16.74;84.71
9277;BME280;4676;42.678;23.244;2023-05-07T07:27:11;94340.59;;;16.85;83.58
9277;BME280;4676;42.678;23.244;2023-05-07T07:29:38;94340.50;;;16.87;80.44
9277;BME280;4676;42.678;23.244;2023-05-07T07:32:05;94343.44;;;16.95;85.24
9277;BME280;4676;42.678;23.244;2023-05-07T07:34:31;94340.56;;;17.14;81.10
9277;BME280;4676;42.678;23.244;2023-05-07T07:36:58;94339.94;;;17.51;76.92
9277;BME280;4676;42.678;23.244;2023-05-07T07:39:30;94351.09;;;17.64;74.36
9277;BME280;4676;42.678;23.244;2023-05-07T07:41:57;94353.38;;;17.55;74.77
9277;BME280;4676;42.678;23.244;2023-05-07T07:44:25;94347.31;;;17.29;71.76
9277;BME280;4676;42.678;23.244;2023-05-07T07:46:52;94358.16;;;17.46;72.38
9277;BME280;4676;42.678;23.244;2023-05-07T07:49:18;94365.13;;;17.44;72.24
9277;BME280;4676;42.678;23.244;2023-05-07T07:51:45;94363.28;;;17.46;75.04
9277;BME280;4676;42.678;23.244;2023-05-07T07:54:12;94355.38;;;17.64;77.59
9277;BME280;4676;42.678;23.244;2023-05-07T07:56:38;94349.81;;;17.57;76.00
9277;BME280;4676;42.678;23.244;2023-05-07T07:59:05;94334.13;;;17.21;75.54
9277;BME280;4676;42.678;23.244;2023-05-07T08:01:33;94349.22;;;17.66;76.75
9277;BME280;4676;42.678;23.244;2023-05-07T08:04:00;94351.94;;;17.77;73.58
9277;BME280;4676;42.678;23.244;2023-05-07T08:06:28;94355.50;;;18.02;72.17
9277;BME280;4676;42.678;23.244;2023-05-07T08:08:55;94350.63;;;18.11;72.15
9277;BME280;4676;42.678;23.244;2023-05-07T08:11:21;94348.84;;;17.99;69.26
9277;BME280;4676;42.678;23.244;2023-05-07T08:13:48;94348.63;;;18.02;66.80
9277;BME280;4676;42.678;23.244;2023-05-07T08:16:15;94347.81;;;18.02;69.85
9277;BME280;4676;42.678;23.244;2023-05-07T08:18:43;94344.91;;;18.33;67.68
9277;BME280;4676;42.678;23.244;2023-05-07T08:21:10;94346.56;;;18.46;66.55
9277;BME280;4676;42.678;23.244;2023-05-07T08:23:37;94347.16;;;18.50;64.33
9277;BME280;4676;42.678;23.244;2023-05-07T08:26:04;94337.53;;;18.66;65.78
9277;BME280;4676;42.678;23.244;2023-05-07T08:28:30;94344.31;;;18.92;62.88
9277;BME280;4676;42.678;23.244;2023-05-07T08:30:57;94336.47;;;18.94;60.38
9277;BME280;4676;42.678;23.244;2023-05-07T08:33:25;94342.84;;;19.01;61.92
9277;BME280;4676;42.678;23.244;2023-05-07T08:35:53;94336.28;;;18.97;59.96
9277;BME280;4676;42.678;23.244;2023-05-07T08:38:20;94336.41;;;18.95;60.10
9277;BME280;4676;42.678;23.244;2023-05-07T08:40:47;94327.03;;;18.94;62.36
9277;BME280;4676;42.678;23.244;2023-05-07T08:43:14;94325.78;;;19.00;59.61
9277;BME280;4676;42.678;23.244;2023-05-07T08:45:41;94326.81;;;19.10;64.02
9277;BME280;4676;42.678;23.244;2023-05-07T08:48:09;94334.34;;;19.37;60.68
9277;BME280;4676;42.678;23.244;2023-05-07T08:50:40;94330.56;;;19.30;61.47
9277;BME280;4676;42.678;23.244;2023-05-07T08:53:09;94321.63;;;19.23;61.66
9277;BME280;4676;42.678;23.244;2023-05-07T08:55:35;94329.16;;;19.50;63.41
9277;BME280;4676;42.678;23.244;2023-05-07T08:58:03;94323.44;;;19.70;60.64
9277;BME280;4676;42.678;23.244;2023-05-07T09:00:30;94324.25;;;19.94;60.29
9277;BME280;4676;42.678;23.244;2023-05-07T09:02:57;94324.41;;;20.04;57.11
9277;BME280;4676;42.678;23.244;2023-05-07T09:05:23;94323.84;;;20.11;56.04
9277;BME280;4676;42.678;23.244;2023-05-07T09:07:50;94319.22;;;19.92;54.41
9277;BME280;4676;42.678;23.244;2023-05-07T09:10:19;94313.81;;;20.19;56.36
9277;BME280;4676;42.678;23.244;2023-05-07T09:12:46;94310.69;;;20.38;56.99
9277;BME280;4676;42.678;23.244;2023-05-07T09:15:13;94304.72;;;20.37;56.04
9277;BME280;4676;42.678;23.244;2023-05-07T09:17:40;94296.59;;;20.55;59.57
9277;BME280;4676;42.678;23.244;2023-05-07T09:20:07;94309.00;;;20.72;56.59
9277;BME280;4676;42.678;23.244;2023-05-07T09:22:36;94300.44;;;20.93;56.67
9277;BME280;4676;42.678;23.244;2023-05-07T09:25:04;94302.59;;;21.11;53.83
9277;BME280;4676;42.678;23.244;2023-05-07T09:27:32;94299.25;;;21.31;54.49
9277;BME280;4676;42.678;23.244;2023-05-07T09:29:59;94296.66;;;21.42;56.01
9277;BME280;4676;42.678;23.244;2023-05-07T09:32:25;94297.06;;;21.15;49.36
9277;BME280;4676;42.678;23.244;2023-05-07T09:34:53;94306.28;;;20.62;48.42
9277;BME280;4676;42.678;23.244;2023-05-07T09:37:19;94299.66;;;20.25;49.09
9277;BME280;4676;42.678;23.244;2023-05-07T09:39:49;94307.72;;;20.20;49.59
9277;BME280;4676;42.678;23.244;2023-05-07T09:42:22;94285.50;;;20.19;50.84
9277;BME280;4676;42.678;23.244;2023-05-07T09:44:51;94291.31;;;20.56;49.97
9277;BME280;4676;42.678;23.244;2023-05-07T09:47:19;94287.09;;;20.55;50.05
9277;BME280;4676;42.678;23.244;2023-05-07T09:49:48;94288.63;;;20.69;49.04
9277;BME280;4676;42.678;23.244;2023-05-07T09:52:15;94282.28;;;20.84;53.10
9277;BME280;4676;42.678;23.244;2023-05-07T09:54:43;94278.53;;;20.99;52.04
9277;BME280;4676;42.678;23.244;2023-05-07T09:57:11;94276.66;;;21.12;49.53
9277;BME280;4676;42.678;23.244;2023-05-07T09:59:38;94285.34;;;21.00;45.86
9277;BME280;4676;42.678;23.244;2023-05-07T10:02:07;94291.44;;;20.77;45.08
9277;BME280;4676;42.678;23.244;2023-05-07T10:04:35;94284.16;;;20.60;46.20
9277;BME280;4676;42.678;23.244;2023-05-07T10:07:03;94279.00;;;20.60;47.33
9277;BME280;4676;42.678;23.244;2023-05-07T10:09:30;94281.84;;;20.79;48.75
9277;BME280;4676;42.678;23.244;2023-05-07T10:11:58;94279.56;;;21.08;48.40
9277;BME280;4676;42.678;23.244;2023-05-07T10:14:27;94283.78;;;21.31;46.29
9277;BME280;4676;42.678;23.244;2023-05-07T10:16:54;94281.91;;;21.22;43.82
9277;BME280;4676;42.678;23.244;2023-05-07T10:19:23;94279.59;;;20.85;44.56
9277;BME280;4676;42.678;23.244;2023-05-07T10:21:54;94273.28;;;20.89;43.69
9277;BME280;4676;42.678;23.244;2023-05-07T10:24:25;94266.16;;;20.82;43.78
9277;BME280;4676;42.678;23.244;2023-05-07T10:26:53;94268.34;;;20.86;43.05
9277;BME280;4676;42.678;23.244;2023-05-07T10:29:38;94265.09;;;20.84;44.32
9277;BME280;4676;42.678;23.244;2023-05-07T10:32:29;94257.69;;;20.80;43.52
9277;BME280;4676;42.678;23.244;2023-05-07T10:35:04;94255.44;;;20.98;46.10
9277;BME280;4676;42.678;23.244;2023-05-07T10:37:33;94246.41;;;21.25;43.32
9277;BME280;4676;42.678;23.244;2023-05-07T10:40:01;94247.84;;;21.50;44.79
9277;BME280;4676;42.678;23.244;2023-05-07T10:42:28;94242.25;;;21.13;41.89
9277;BME280;4676;42.678;23.244;2023-05-07T10:44:55;94243.31;;;21.11;42.98
9277;BME280;4676;42.678;23.244;2023-05-07T10:47:21;94248.91;;;21.16;43.69
9277;BME280;4676;42.678;23.244;2023-05-07T10:50:24;94246.06;;;21.30;43.99
9277;BME280;4676;42.678;23.244;2023-05-07T11:02:00;94214.75;;;22.28;43.50
9277;BME280;4676;42.678;23.244;2023-05-07T11:04:28;94229.28;;;22.50;42.74
9277;BME280;4676;42.678;23.244;2023-05-07T11:07:25;94234.75;;;22.57;44.19
9277;BME280;4676;42.678;23.244;2023-05-07T11:09:57;94239.94;;;22.36;41.93
9277;BME280;4676;42.678;23.244;2023-05-07T11:12:54;94240.25;;;22.42;42.44
9277;BME280;4676;42.678;23.244;2023-05-07T11:15:38;94235.94;;;22.53;40.98
9277;BME280;4676;42.678;23.244;2023-05-07T11:18:05;94229.59;;;22.66;40.32
9277;BME280;4676;42.678;23.244;2023-05-07T11:20:53;94235.13;;;22.73;41.01
9277;BME280;4676;42.678;23.244;2023-05-07T11:23:58;94225.88;;;22.50;40.10
9277;BME280;4676;42.678;23.244;2023-05-07T11:26:27;94218.16;;;22.29;41.51
9277;BME280;4676;42.678;23.244;2023-05-07T11:28:54;94222.44;;;22.39;41.96
9277;BME280;4676;42.678;23.244;2023-05-07T11:31:23;94218.66;;;22.44;42.46
9277;BME280;4676;42.678;23.244;2023-05-07T11:33:52;94200.53;;;22.13;42.70
9277;BME280;4676;42.678;23.244;2023-05-07T11:36:19;94221.34;;;21.91;41.09
9277;BME280;4676;42.678;23.244;2023-05-07T11:38:46;94220.50;;;21.90;41.73
9277;BME280;4676;42.678;23.244;2023-05-07T11:41:16;94219.56;;;21.92;41.07
9277;BME280;4676;42.678;23.244;2023-05-07T11:43:55;94211.59;;;22.25;43.10
9277;BME280;4676;42.678;23.244;2023-05-07T11:46:22;94215.28;;;22.22;41.45
9277;BME280;4676;42.678;23.244;2023-05-07T11:48:49;94213.75;;;22.40;42.07
9277;BME280;4676;42.678;23.244;2023-05-07T11:51:19;94217.94;;;22.41;40.24
9277;BME280;4676;42.678;23.244;2023-05-07T11:53:46;94208.88;;;22.47;40.23
9277;BME280;4676;42.678;23.244;2023-05-07T11:56:15;94215.41;;;22.51;40.21
9277;BME280;4676;42.678;23.244;2023-05-07T11:58:43;94200.34;;;22.26;39.98
9277;BME280;4676;42.678;23.244;2023-05-07T12:01:11;94205.16;;;22.40;40.49
9277;BME280;4676;42.678;23.244;2023-05-07T12:03:40;94207.09;;;22.68;40.26
9277;BME280;4676;42.678;23.244;2023-05-07T12:06:09;94207.00;;;22.79;39.78
9277;BME280;4676;42.678;23.244;2023-05-07T12:08:36;94192.56;;;22.47;39.49
9277;BME280;4676;42.678;23.244;2023-05-07T12:11:07;94194.41;;;22.35;39.20
9277;BME280;4676;42.678;23.244;2023-05-07T12:13:35;94185.44;;;22.39;41.66
9277;BME280;4676;42.678;23.244;2023-05-07T12:16:03;94193.41;;;22.57;40.40
9277;BME280;4676;42.678;23.244;2023-05-07T12:18:32;94192.53;;;22.77;39.67
9277;BME280;4676;42.678;23.244;2023-05-07T12:20:59;94200.06;;;22.59;39.30
9277;BME280;4676;42.678;23.244;2023-05-07T12:23:26;94197.16;;;22.43;38.95
9277;BME280;4676;42.678;23.244;2023-05-07T12:25:53;94187.59;;;22.64;40.28
9277;BME280;4676;42.678;23.244;2023-05-07T12:28:19;94184.72;;;22.58;38.46
9277;BME280;4676;42.678;23.244;2023-05-07T12:30:49;94171.97;;;22.66;39.64
9277;BME280;4676;42.678;23.244;2023-05-07T12:33:17;94184.78;;;22.77;38.43
9277;BME280;4676;42.678;23.244;2023-05-07T12:35:47;94176.13;;;22.57;37.80
9277;BME280;4676;42.678;23.244;2023-05-07T12:38:16;94175.97;;;22.49;38.20
9277;BME280;4676;42.678;23.244;2023-05-07T12:40:44;94155.84;;;22.53;38.90
9277;BME280;4676;42.678;23.244;2023-05-07T12:43:15;94162.69;;;22.94;39.60
9277;BME280;4676;42.678;23.244;2023-05-07T12:45:49;94172.09;;;23.04;37.31
9277;BME280;4676;42.678;23.244;2023-05-07T12:48:17;94169.63;;;23.03;37.07
9277;BME280;4676;42.678;23.244;2023-05-07T12:50:43;94158.19;;;23.05;38.49
9277;BME280;4676;42.678;23.244;2023-05-07T12:53:11;94156.41;;;23.06;37.17
9277;BME280;4676;42.678;23.244;2023-05-07T12:55:42;94106.44;;;22.76;37.67
9277;BME280;4676;42.678;23.244;2023-05-07T12:58:15;94138.63;;;23.22;38.45
9277;BME280;4676;42.678;23.244;2023-05-07T13:00:43;94145.81;;;23.28;38.84
9277;BME280;4676;42.678;23.244;2023-05-07T13:03:11;94145.16;;;23.35;38.21
9277;BME280;4676;42.678;23.244;2023-05-07T13:05:39;94147.47;;;23.38;36.82
9277;BME280;4676;42.678;23.244;2023-05-07T13:08:05;94134.53;;;23.29;37.51
9277;BME280;4676;42.678;23.244;2023-05-07T13:10:35;94141.22;;;23.22;36.77
9277;BME280;4676;42.678;23.244;2023-05-07T13:13:01;94138.50;;;23.43;39.81
9277;BME280;4676;42.678;23.244;2023-05-07T13:15:28;94139.03;;;23.17;36.61
9277;BME280;4676;42.678;23.244;2023-05-07T13:17:55;94133.06;;;23.46;37.80
9277;BME280;4676;42.678;23.244;2023-05-07T13:20:23;94124.56;;;23.72;37.62
9277;BME280;4676;42.678;23.244;2023-05-07T13:22:50;94132.31;;;23.82;37.18
9277;BME280;4676;42.678;23.244;2023-05-07T13:25:17;94125.16;;;23.57;36.50